sensor_id;sensor_type;location;lat;lon;timestamp;pressure;altitude;pressure_sealevel;temperature
72278;BMP280;61204;49.980;8.358;2023-12-22T00:01:40;99116.72;;;5.09
72278;BMP280;61204;49.980;8.358;2023-12-22T00:04:07;99134.16;;;5.06
72278;BMP280;61204;49.980;8.358;2023-12-22T00:06:33;99121.00;;;5.02
72278;BMP280;61204;49.980;8.358;2023-12-22T00:09:02;99112.00;;;5.09
72278;BMP280;61204;49.980;8.358;2023-12-22T00:11:27;99110.97;;;5.14
72278;BMP280;61204;49.980;8.358;2023-12-22T00:13:53;99144.59;;;5.19
72278;BMP280;61204;49.980;8.358;2023-12-22T00:16:19;99138.72;;;5.13
72278;BMP280;61204;49.980;8.358;2023-12-22T00:18:44;99130.00;;;5.14
72278;BMP280;61204;49.980;8.358;2023-12-22T00:21:10;99139.31;;;5.11
72278;BMP280;61204;49.980;8.358;2023-12-22T00:23:38;99127.84;;;5.13
72278;BMP280;61204;49.980;8.358;2023-12-22T00:26:09;99139.31;;;5.11
72278;BMP280;61204;49.980;8.358;2023-12-22T00:28:37;99124.59;;;5.24
72278;BMP280;61204;49.980;8.358;2023-12-22T00:31:02;99122.59;;;5.34
72278;BMP280;61204;49.980;8.358;2023-12-22T00:33:28;99116.28;;;5.32
72278;BMP280;61204;49.980;8.358;2023-12-22T00:35:53;99120.16;;;5.28
72278;BMP280;61204;49.980;8.358;2023-12-22T00:38:19;99135.13;;;5.29
72278;BMP280;61204;49.980;8.358;2023-12-22T00:40:44;99118.41;;;5.33
72278;BMP280;61204;49.980;8.358;2023-12-22T00:43:10;99132.00;;;5.33
72278;BMP280;61204;49.980;8.358;2023-12-22T00:45:35;99127.44;;;5.36
72278;BMP280;61204;49.980;8.358;2023-12-22T00:48:01;99134.00;;;5.52
72278;BMP280;61204;49.980;8.358;2023-12-22T00:50:27;99124.59;;;5.94
72278;BMP280;61204;49.980;8.358;2023-12-22T00:52:52;99147.59;;;6.12
72278;BMP280;61204;49.980;8.358;2023-12-22T00:55:18;99139.41;;;6.22
72278;BMP280;61204;49.980;8.358;2023-12-22T00:57:43;99135.13;;;6.19
72278;BMP280;61204;49.980;8.358;2023-12-22T01:00:09;99129.13;;;6.11
72278;BMP280;61204;49.980;8.358;2023-12-22T01:02:38;99161.47;;;6.16
72278;BMP280;61204;49.980;8.358;2023-12-22T01:05:04;99156.28;;;6.20
72278;BMP280;61204;49.980;8.358;2023-12-22T01:07:31;99146.88;;;6.12
72278;BMP280;61204;49.980;8.358;2023-12-22T01:09:56;99155.38;;;6.06
72278;BMP280;61204;49.980;8.358;2023-12-22T01:12:27;99147.16;;;6.16
72278;BMP280;61204;49.980;8.358;2023-12-22T01:14:56;99173.03;;;6.26
72278;BMP280;61204;49.980;8.358;2023-12-22T01:17:22;99171.47;;;6.23
72278;BMP280;61204;49.980;8.358;2023-12-22T01:19:48;99191.56;;;6.18
72278;BMP280;61204;49.980;8.358;2023-12-22T01:22:14;99198.31;;;6.17
72278;BMP280;61204;49.980;8.358;2023-12-22T01:24:42;99211.56;;;6.23
72278;BMP280;61204;49.980;8.358;2023-12-22T01:27:12;99209.31;;;6.19
72278;BMP280;61204;49.980;8.358;2023-12-22T01:29:38;99194.00;;;6.14
72278;BMP280;61204;49.980;8.358;2023-12-22T01:32:04;99201.03;;;6.07
72278;BMP280;61204;49.980;8.358;2023-12-22T01:34:30;99225.97;;;6.04
72278;BMP280;61204;49.980;8.358;2023-12-22T01:36:58;99213.06;;;6.04
72278;BMP280;61204;49.980;8.358;2023-12-22T01:39:23;99208.66;;;5.99
72278;BMP280;61204;49.980;8.358;2023-12-22T01:41:49;99239.00;;;5.96
72278;BMP280;61204;49.980;8.358;2023-12-22T01:44:15;99223.25;;;5.94
72278;BMP280;61204;49.980;8.358;2023-12-22T01:46:40;99219.09;;;5.93
72278;BMP280;61204;49.980;8.358;2023-12-22T01:49:07;99253.63;;;5.91
72278;BMP280;61204;49.980;8.358;2023-12-22T01:51:34;99254.59;;;5.86
72278;BMP280;61204;49.980;8.358;2023-12-22T01:54:05;99235.28;;;5.82
72278;BMP280;61204;49.980;8.358;2023-12-22T01:56:36;99230.16;;;5.76
72278;BMP280;61204;49.980;8.358;2023-12-22T01:59:02;99230.72;;;5.74
72278;BMP280;61204;49.980;8.358;2023-12-22T02:01:28;99248.75;;;5.79
72278;BMP280;61204;49.980;8.358;2023-12-22T02:03:54;99243.31;;;5.79
72278;BMP280;61204;49.980;8.358;2023-12-22T02:06:21;99247.44;;;5.80
72278;BMP280;61204;49.980;8.358;2023-12-22T02:08:47;99245.88;;;5.77
72278;BMP280;61204;49.980;8.358;2023-12-22T02:11:14;99242.56;;;5.79
72278;BMP280;61204;49.980;8.358;2023-12-22T02:13:44;99233.69;;;5.78
72278;BMP280;61204;49.980;8.358;2023-12-22T02:16:34;99230.44;;;5.80
72278;BMP280;61204;49.980;8.358;2023-12-22T02:22:08;99221.84;;;5.74
72278;BMP280;61204;49.980;8.358;2023-12-22T02:24:39;99228.72;;;5.75
72278;BMP280;61204;49.980;8.358;2023-12-22T02:30:26;99225.97;;;5.85
72278;BMP280;61204;49.980;8.358;2023-12-22T02:33:08;99214.41;;;5.84
72278;BMP280;61204;49.980;8.358;2023-12-22T02:35:36;99219.69;;;5.82
72278;BMP280;61204;49.980;8.358;2023-12-22T02:38:07;99233.16;;;5.80
72278;BMP280;61204;49.980;8.358;2023-12-22T02:40:35;99236.00;;;5.82
72278;BMP280;61204;49.980;8.358;2023-12-22T02:43:02;99216.09;;;5.89
72278;BMP280;61204;49.980;8.358;2023-12-22T02:45:31;99225.81;;;5.92
72278;BMP280;61204;49.980;8.358;2023-12-22T02:47:57;99211.50;;;5.92
72278;BMP280;61204;49.980;8.358;2023-12-22T02:50:23;99207.22;;;5.89
72278;BMP280;61204;49.980;8.358;2023-12-22T02:52:49;99219.66;;;5.92
72278;BMP280;61204;49.980;8.358;2023-12-22T02:55:14;99208.25;;;5.84
72278;BMP280;61204;49.980;8.358;2023-12-22T02:57:40;99197.22;;;5.82
72278;BMP280;61204;49.980;8.358;2023-12-22T03:00:06;99196.81;;;5.75
72278;BMP280;61204;49.980;8.358;2023-12-22T03:02:33;99209.81;;;5.77
72278;BMP280;61204;49.980;8.358;2023-12-22T03:04:59;99184.50;;;5.74
72278;BMP280;61204;49.980;8.358;2023-12-22T03:07:24;99195.38;;;5.74
72278;BMP280;61204;49.980;8.358;2023-12-22T03:09:50;99202.97;;;5.76
72278;BMP280;61204;49.980;8.358;2023-12-22T03:12:15;99192.66;;;5.74
72278;BMP280;61204;49.980;8.358;2023-12-22T03:14:41;99178.91;;;5.72
72278;BMP280;61204;49.980;8.358;2023-12-22T03:17:07;99176.91;;;5.73
72278;BMP280;61204;49.980;8.358;2023-12-22T03:19:33;99167.34;;;5.72
72278;BMP280;61204;49.980;8.358;2023-12-22T03:22:04;99180.78;;;5.70
72278;BMP280;61204;49.980;8.358;2023-12-22T03:24:29;99167.59;;;5.66
72278;BMP280;61204;49.980;8.358;2023-12-22T03:26:55;99169.03;;;5.67
72278;BMP280;61204;49.980;8.358;2023-12-22T03:29:20;99169.31;;;5.71
72278;BMP280;61204;49.980;8.358;2023-12-22T03:31:46;99174.75;;;5.81
72278;BMP280;61204;49.980;8.358;2023-12-22T03:34:12;99184.88;;;6.00
72278;BMP280;61204;49.980;8.358;2023-12-22T03:36:39;99207.41;;;6.31
72278;BMP280;61204;49.980;8.358;2023-12-22T03:39:04;99213.69;;;6.44
72278;BMP280;61204;49.980;8.358;2023-12-22T03:41:30;99212.03;;;6.60
72278;BMP280;61204;49.980;8.358;2023-12-22T03:43:57;99212.13;;;6.72
72278;BMP280;61204;49.980;8.358;2023-12-22T03:46:23;99218.06;;;6.80
72278;BMP280;61204;49.980;8.358;2023-12-22T03:48:50;99219.94;;;6.77
72278;BMP280;61204;49.980;8.358;2023-12-22T03:51:18;99214.91;;;6.83
72278;BMP280;61204;49.980;8.358;2023-12-22T03:53:44;99200.03;;;6.75
72278;BMP280;61204;49.980;8.358;2023-12-22T03:56:09;99202.59;;;6.82
72278;BMP280;61204;49.980;8.358;2023-12-22T03:58:38;99199.44;;;6.76
72278;BMP280;61204;49.980;8.358;2023-12-22T04:01:04;99203.31;;;6.83
72278;BMP280;61204;49.980;8.358;2023-12-22T04:03:32;99191.28;;;6.76
72278;BMP280;61204;49.980;8.358;2023-12-22T04:06:02;99193.00;;;6.81
72278;BMP280;61204;49.980;8.358;2023-12-22T04:08:28;99193.88;;;6.74
72278;BMP280;61204;49.980;8.358;2023-12-22T04:10:54;99213.50;;;6.82
72278;BMP280;61204;49.980;8.358;2023-12-22T04:13:19;99223.31;;;6.88
72278;BMP280;61204;49.980;8.358;2023-12-22T04:15:45;99233.06;;;6.91
72278;BMP280;61204;49.980;8.358;2023-12-22T04:18:10;99241.28;;;6.81
72278;BMP280;61204;49.980;8.358;2023-12-22T04:20:36;99223.25;;;6.76
72278;BMP280;61204;49.980;8.358;2023-12-22T04:23:01;99245.75;;;6.86
72278;BMP280;61204;49.980;8.358;2023-12-22T04:25:27;99239.00;;;6.87
72278;BMP280;61204;49.980;8.358;2023-12-22T04:27:53;99235.56;;;6.87
72278;BMP280;61204;49.980;8.358;2023-12-22T04:30:18;99233.50;;;6.97
72278;BMP280;61204;49.980;8.358;2023-12-22T04:32:44;99245.22;;;6.99
72278;BMP280;61204;49.980;8.358;2023-12-22T04:35:09;99246.78;;;7.02
72278;BMP280;61204;49.980;8.358;2023-12-22T04:37:35;99247.34;;;7.01
72278;BMP280;61204;49.980;8.358;2023-12-22T04:40:01;99256.81;;;7.00
72278;BMP280;61204;49.980;8.358;2023-12-22T04:42:28;99255.53;;;7.01
72278;BMP280;61204;49.980;8.358;2023-12-22T04:44:54;99257.06;;;7.04
72278;BMP280;61204;49.980;8.358;2023-12-22T04:47:19;99244.38;;;7.18
72278;BMP280;61204;49.980;8.358;2023-12-22T04:49:48;99258.44;;;7.15
72278;BMP280;61204;49.980;8.358;2023-12-22T04:52:14;99271.63;;;7.18
72278;BMP280;61204;49.980;8.358;2023-12-22T04:54:39;99257.28;;;7.18
72278;BMP280;61204;49.980;8.358;2023-12-22T04:57:05;99256.13;;;7.21
72278;BMP280;61204;49.980;8.358;2023-12-22T04:59:30;99259.00;;;7.23
72278;BMP280;61204;49.980;8.358;2023-12-22T05:01:56;99271.41;;;7.35
72278;BMP280;61204;49.980;8.358;2023-12-22T05:04:22;99271.84;;;7.32
72278;BMP280;61204;49.980;8.358;2023-12-22T05:06:48;99280.59;;;7.30
72278;BMP280;61204;49.980;8.358;2023-12-22T05:09:14;99277.75;;;7.28
72278;BMP280;61204;49.980;8.358;2023-12-22T05:11:40;99297.09;;;7.32
72278;BMP280;61204;49.980;8.358;2023-12-22T05:14:06;99285.53;;;7.22
72278;BMP280;61204;49.980;8.358;2023-12-22T05:16:32;99285.50;;;7.01
72278;BMP280;61204;49.980;8.358;2023-12-22T05:19:03;99284.16;;;6.80
72278;BMP280;61204;49.980;8.358;2023-12-22T05:21:52;99295.06;;;6.80
72278;BMP280;61204;49.980;8.358;2023-12-22T05:24:21;99274.56;;;6.79
72278;BMP280;61204;49.980;8.358;2023-12-22T05:26:47;99276.19;;;6.73
72278;BMP280;61204;49.980;8.358;2023-12-22T05:29:12;99278.06;;;6.70
72278;BMP280;61204;49.980;8.358;2023-12-22T05:31:38;99258.56;;;6.64
72278;BMP280;61204;49.980;8.358;2023-12-22T05:34:05;99268.44;;;6.69
72278;BMP280;61204;49.980;8.358;2023-12-22T05:36:31;99284.66;;;6.67
72278;BMP280;61204;49.980;8.358;2023-12-22T05:38:56;99280.06;;;6.70
72278;BMP280;61204;49.980;8.358;2023-12-22T05:41:22;99270.81;;;6.84
72278;BMP280;61204;49.980;8.358;2023-12-22T05:43:47;99288.44;;;6.93
72278;BMP280;61204;49.980;8.358;2023-12-22T05:46:13;99282.81;;;6.91
72278;BMP280;61204;49.980;8.358;2023-12-22T05:48:41;99273.22;;;6.90
72278;BMP280;61204;49.980;8.358;2023-12-22T05:51:06;99271.81;;;6.89
72278;BMP280;61204;49.980;8.358;2023-12-22T05:53:38;99273.53;;;6.84
72278;BMP280;61204;49.980;8.358;2023-12-22T05:56:16;99275.56;;;6.84
72278;BMP280;61204;49.980;8.358;2023-12-22T05:58:46;99305.69;;;6.86
72278;BMP280;61204;49.980;8.358;2023-12-22T06:01:17;99289.06;;;6.82
72278;BMP280;61204;49.980;8.358;2023-12-22T06:03:44;99286.94;;;6.61
72278;BMP280;61204;49.980;8.358;2023-12-22T06:06:11;99288.59;;;6.45
72278;BMP280;61204;49.980;8.358;2023-12-22T06:08:38;99273.25;;;6.40
72278;BMP280;61204;49.980;8.358;2023-12-22T06:11:04;99287.63;;;6.40
72278;BMP280;61204;49.980;8.358;2023-12-22T06:13:30;99296.31;;;6.48
72278;BMP280;61204;49.980;8.358;2023-12-22T06:15:59;99298.78;;;6.44
72278;BMP280;61204;49.980;8.358;2023-12-22T06:18:24;99292.78;;;6.36
72278;BMP280;61204;49.980;8.358;2023-12-22T06:20:52;99267.28;;;6.31
72278;BMP280;61204;49.980;8.358;2023-12-22T06:23:19;99294.75;;;6.36
72278;BMP280;61204;49.980;8.358;2023-12-22T06:25:45;99280.88;;;6.41
72278;BMP280;61204;49.980;8.358;2023-12-22T06:28:12;99282.84;;;6.50
72278;BMP280;61204;49.980;8.358;2023-12-22T06:30:38;99299.75;;;6.49
72278;BMP280;61204;49.980;8.358;2023-12-22T06:33:03;99295.03;;;6.59
72278;BMP280;61204;49.980;8.358;2023-12-22T06:35:29;99307.09;;;6.77
72278;BMP280;61204;49.980;8.358;2023-12-22T06:37:56;99302.72;;;6.72
72278;BMP280;61204;49.980;8.358;2023-12-22T06:40:26;99325.00;;;6.90
72278;BMP280;61204;49.980;8.358;2023-12-22T06:42:51;99326.66;;;7.05
72278;BMP280;61204;49.980;8.358;2023-12-22T06:45:17;99327.00;;;7.21
72278;BMP280;61204;49.980;8.358;2023-12-22T06:47:43;99317.00;;;7.14
72278;BMP280;61204;49.980;8.358;2023-12-22T06:50:08;99315.13;;;7.16
72278;BMP280;61204;49.980;8.358;2023-12-22T06:52:36;99324.44;;;7.13
72278;BMP280;61204;49.980;8.358;2023-12-22T06:55:02;99319.22;;;7.27
72278;BMP280;61204;49.980;8.358;2023-12-22T06:57:28;99333.06;;;7.41
72278;BMP280;61204;49.980;8.358;2023-12-22T06:59:53;99344.09;;;7.43
72278;BMP280;61204;49.980;8.358;2023-12-22T07:02:19;99331.38;;;7.35
72278;BMP280;61204;49.980;8.358;2023-12-22T07:07:51;99335.94;;;7.43
72278;BMP280;61204;49.980;8.358;2023-12-22T07:10:17;99350.19;;;7.53
72278;BMP280;61204;49.980;8.358;2023-12-22T07:12:42;99349.69;;;7.45
72278;BMP280;61204;49.980;8.358;2023-12-22T07:15:08;99355.19;;;7.56
72278;BMP280;61204;49.980;8.358;2023-12-22T07:17:34;99357.16;;;7.66
72278;BMP280;61204;49.980;8.358;2023-12-22T07:20:00;99351.97;;;7.70
72278;BMP280;61204;49.980;8.358;2023-12-22T07:22:28;99363.66;;;7.82
72278;BMP280;61204;49.980;8.358;2023-12-22T07:24:54;99360.59;;;7.87
72278;BMP280;61204;49.980;8.358;2023-12-22T07:27:22;99362.59;;;7.87
72278;BMP280;61204;49.980;8.358;2023-12-22T07:29:48;99348.22;;;7.86
72278;BMP280;61204;49.980;8.358;2023-12-22T07:32:13;99376.03;;;7.95
72278;BMP280;61204;49.980;8.358;2023-12-22T07:34:39;99392.53;;;7.97
72278;BMP280;61204;49.980;8.358;2023-12-22T07:37:06;99401.44;;;7.97
72278;BMP280;61204;49.980;8.358;2023-12-22T07:39:32;99401.19;;;7.93
72278;BMP280;61204;49.980;8.358;2023-12-22T07:41:57;99413.66;;;7.96
72278;BMP280;61204;49.980;8.358;2023-12-22T07:44:23;99422.50;;;8.06
72278;BMP280;61204;49.980;8.358;2023-12-22T07:46:56;99418.06;;;8.23
72278;BMP280;61204;49.980;8.358;2023-12-22T07:49:26;99426.81;;;8.21
72278;BMP280;61204;49.980;8.358;2023-12-22T07:51:52;99415.44;;;8.25
72278;BMP280;61204;49.980;8.358;2023-12-22T07:54:18;99430.63;;;8.49
72278;BMP280;61204;49.980;8.358;2023-12-22T07:56:44;99423.13;;;8.50
72278;BMP280;61204;49.980;8.358;2023-12-22T07:59:10;99428.84;;;8.54
72278;BMP280;61204;49.980;8.358;2023-12-22T08:01:36;99431.47;;;8.52
72278;BMP280;61204;49.980;8.358;2023-12-22T08:04:01;99427.28;;;8.51
72278;BMP280;61204;49.980;8.358;2023-12-22T08:06:27;99417.44;;;8.57
72278;BMP280;61204;49.980;8.358;2023-12-22T08:08:52;99416.13;;;8.58
72278;BMP280;61204;49.980;8.358;2023-12-22T08:11:20;99419.72;;;8.61
72278;BMP280;61204;49.980;8.358;2023-12-22T08:13:45;99445.47;;;8.58
72278;BMP280;61204;49.980;8.358;2023-12-22T08:16:15;99427.88;;;8.49
72278;BMP280;61204;49.980;8.358;2023-12-22T08:18:40;99444.91;;;8.26
72278;BMP280;61204;49.980;8.358;2023-12-22T08:21:06;99461.03;;;8.01
72278;BMP280;61204;49.980;8.358;2023-12-22T08:23:31;99463.75;;;7.79
72278;BMP280;61204;49.980;8.358;2023-12-22T08:25:59;99469.84;;;7.68
72278;BMP280;61204;49.980;8.358;2023-12-22T08:28:24;99464.47;;;7.49
72278;BMP280;61204;49.980;8.358;2023-12-22T08:30:51;99464.22;;;7.45
72278;BMP280;61204;49.980;8.358;2023-12-22T08:33:17;99457.06;;;7.40
72278;BMP280;61204;49.980;8.358;2023-12-22T08:35:43;99445.00;;;7.43
72278;BMP280;61204;49.980;8.358;2023-12-22T08:38:09;99445.19;;;7.35
72278;BMP280;61204;49.980;8.358;2023-12-22T08:40:34;99431.41;;;7.33
72278;BMP280;61204;49.980;8.358;2023-12-22T08:43:00;99422.34;;;7.30
72278;BMP280;61204;49.980;8.358;2023-12-22T08:45:27;99417.50;;;7.29
72278;BMP280;61204;49.980;8.358;2023-12-22T08:47:55;99414.94;;;7.21
72278;BMP280;61204;49.980;8.358;2023-12-22T08:50:21;99420.66;;;7.25
72278;BMP280;61204;49.980;8.358;2023-12-22T08:52:47;99432.06;;;7.12
72278;BMP280;61204;49.980;8.358;2023-12-22T08:55:12;99440.84;;;7.01
72278;BMP280;61204;49.980;8.358;2023-12-22T08:57:39;99432.06;;;7.02
72278;BMP280;61204;49.980;8.358;2023-12-22T09:00:07;99433.94;;;7.00
72278;BMP280;61204;49.980;8.358;2023-12-22T09:02:34;99462.66;;;6.91
72278;BMP280;61204;49.980;8.358;2023-12-22T09:05:00;99460.50;;;6.90
72278;BMP280;61204;49.980;8.358;2023-12-22T09:07:25;99444.75;;;6.69
72278;BMP280;61204;49.980;8.358;2023-12-22T09:09:51;99435.59;;;6.64
72278;BMP280;61204;49.980;8.358;2023-12-22T09:12:17;99424.28;;;6.68
72278;BMP280;61204;49.980;8.358;2023-12-22T09:14:42;99432.16;;;6.64
72278;BMP280;61204;49.980;8.358;2023-12-22T09:17:08;99413.25;;;6.56
72278;BMP280;61204;49.980;8.358;2023-12-22T09:19:33;99412.53;;;6.55
72278;BMP280;61204;49.980;8.358;2023-12-22T09:21:59;99405.78;;;6.66
72278;BMP280;61204;49.980;8.358;2023-12-22T09:24:25;99402.31;;;6.75
72278;BMP280;61204;49.980;8.358;2023-12-22T09:26:51;99409.31;;;6.88
72278;BMP280;61204;49.980;8.358;2023-12-22T09:29:17;99400.69;;;6.92
72278;BMP280;61204;49.980;8.358;2023-12-22T09:31:42;99395.69;;;6.88
72278;BMP280;61204;49.980;8.358;2023-12-22T09:34:08;99393.41;;;6.84
72278;BMP280;61204;49.980;8.358;2023-12-22T09:36:34;99397.59;;;6.86
72278;BMP280;61204;49.980;8.358;2023-12-22T09:38:59;99407.59;;;6.93
72278;BMP280;61204;49.980;8.358;2023-12-22T09:41:25;99403.13;;;6.97
72278;BMP280;61204;49.980;8.358;2023-12-22T09:43:51;99401.69;;;6.96
72278;BMP280;61204;49.980;8.358;2023-12-22T09:46:21;99403.66;;;7.05
72278;BMP280;61204;49.980;8.358;2023-12-22T09:48:52;99402.19;;;7.24
72278;BMP280;61204;49.980;8.358;2023-12-22T09:51:18;99398.06;;;7.44
72278;BMP280;61204;49.980;8.358;2023-12-22T09:53:46;99398.13;;;7.56
72278;BMP280;61204;49.980;8.358;2023-12-22T09:56:14;99396.19;;;7.68
72278;BMP280;61204;49.980;8.358;2023-12-22T09:58:43;99398.22;;;7.89
72278;BMP280;61204;49.980;8.358;2023-12-22T10:01:12;99389.81;;;7.97
72278;BMP280;61204;49.980;8.358;2023-12-22T10:03:40;99394.28;;;8.13
72278;BMP280;61204;49.980;8.358;2023-12-22T10:06:08;99385.31;;;8.23
72278;BMP280;61204;49.980;8.358;2023-12-22T10:08:34;99395.75;;;8.26
72278;BMP280;61204;49.980;8.358;2023-12-22T10:11:01;99386.25;;;8.27
72278;BMP280;61204;49.980;8.358;2023-12-22T10:13:31;99374.28;;;8.32
72278;BMP280;61204;49.980;8.358;2023-12-22T10:16:01;99374.56;;;8.48
72278;BMP280;61204;49.980;8.358;2023-12-22T10:18:30;99387.41;;;8.57
72278;BMP280;61204;49.980;8.358;2023-12-22T10:20:57;99390.03;;;8.67
72278;BMP280;61204;49.980;8.358;2023-12-22T10:23:23;99381.13;;;8.78
72278;BMP280;61204;49.980;8.358;2023-12-22T10:25:57;99376.84;;;8.87
72278;BMP280;61204;49.980;8.358;2023-12-22T10:28:23;99379.38;;;8.94
72278;BMP280;61204;49.980;8.358;2023-12-22T10:30:51;99369.16;;;8.95
72278;BMP280;61204;49.980;8.358;2023-12-22T10:33:21;99354.53;;;9.02
72278;BMP280;61204;49.980;8.358;2023-12-22T10:35:46;99359.63;;;9.08
72278;BMP280;61204;49.980;8.358;2023-12-22T10:38:20;99358.44;;;9.11
72278;BMP280;61204;49.980;8.358;2023-12-22T10:40:46;99355.44;;;9.18
72278;BMP280;61204;49.980;8.358;2023-12-22T10:43:14;99340.72;;;9.23
72278;BMP280;61204;49.980;8.358;2023-12-22T10:45:40;99345.94;;;9.31
72278;BMP280;61204;49.980;8.358;2023-12-22T10:48:06;99332.38;;;9.33
72278;BMP280;61204;49.980;8.358;2023-12-22T10:50:35;99323.56;;;9.35
72278;BMP280;61204;49.980;8.358;2023-12-22T10:53:00;99330.81;;;9.42
72278;BMP280;61204;49.980;8.358;2023-12-22T10:55:26;99328.16;;;9.44
72278;BMP280;61204;49.980;8.358;2023-12-22T10:57:54;99332.81;;;9.41
72278;BMP280;61204;49.980;8.358;2023-12-22T11:00:20;99316.69;;;9.34
72278;BMP280;61204;49.980;8.358;2023-12-22T11:02:48;99323.22;;;9.29
72278;BMP280;61204;49.980;8.358;2023-12-22T11:05:16;99315.97;;;9.33
72278;BMP280;61204;49.980;8.358;2023-12-22T11:07:51;99309.56;;;9.29
72278;BMP280;61204;49.980;8.358;2023-12-22T11:10:24;99301.94;;;9.27
72278;BMP280;61204;49.980;8.358;2023-12-22T11:12:52;99306.81;;;9.29
72278;BMP280;61204;49.980;8.358;2023-12-22T11:15:19;99310.88;;;9.28
72278;BMP280;61204;49.980;8.358;2023-12-22T11:17:48;99300.19;;;9.20
72278;BMP280;61204;49.980;8.358;2023-12-22T11:20:17;99294.72;;;9.20
72278;BMP280;61204;49.980;8.358;2023-12-22T11:22:46;99294.25;;;9.23
72278;BMP280;61204;49.980;8.358;2023-12-22T11:25:16;99283.78;;;9.20
72278;BMP280;61204;49.980;8.358;2023-12-22T11:27:44;99281.16;;;9.22
72278;BMP280;61204;49.980;8.358;2023-12-22T11:30:13;99271.41;;;9.19
72278;BMP280;61204;49.980;8.358;2023-12-22T11:32:39;99263.81;;;9.17
72278;BMP280;61204;49.980;8.358;2023-12-22T11:35:07;99260.47;;;9.19
72278;BMP280;61204;49.980;8.358;2023-12-22T11:37:35;99259.03;;;9.18
72278;BMP280;61204;49.980;8.358;2023-12-22T11:40:02;99265.59;;;9.24
72278;BMP280;61204;49.980;8.358;2023-12-22T11:42:34;99252.50;;;9.23
72278;BMP280;61204;49.980;8.358;2023-12-22T11:45:09;99253.63;;;9.06
72278;BMP280;61204;49.980;8.358;2023-12-22T11:47:42;99266.09;;;8.97
72278;BMP280;61204;49.980;8.358;2023-12-22T11:50:11;99254.97;;;8.93
72278;BMP280;61204;49.980;8.358;2023-12-22T11:52:39;99249.00;;;8.85
72278;BMP280;61204;49.980;8.358;2023-12-22T11:55:05;99249.13;;;8.87
72278;BMP280;61204;49.980;8.358;2023-12-22T12:00:06;99248.50;;;8.89
72278;BMP280;61204;49.980;8.358;2023-12-22T12:03:05;99232.69;;;8.99
72278;BMP280;61204;49.980;8.358;2023-12-22T12:05:33;99234.84;;;9.01
72278;BMP280;61204;49.980;8.358;2023-12-22T12:08:08;99237.56;;;9.01
72278;BMP280;61204;49.980;8.358;2023-12-22T12:15:34;99211.69;;;8.90
72278;BMP280;61204;49.980;8.358;2023-12-22T12:18:03;99210.72;;;8.97
72278;BMP280;61204;49.980;8.358;2023-12-22T12:20:30;99203.03;;;8.93
72278;BMP280;61204;49.980;8.358;2023-12-22T12:22:57;99182.72;;;8.85
72278;BMP280;61204;49.980;8.358;2023-12-22T12:25:26;99182.72;;;8.85
72278;BMP280;61204;49.980;8.358;2023-12-22T12:28:01;99180.59;;;8.83
72278;BMP280;61204;49.980;8.358;2023-12-22T12:30:32;99179.47;;;8.88
72278;BMP280;61204;49.980;8.358;2023-12-22T12:33:08;99170.00;;;8.89
72278;BMP280;61204;49.980;8.358;2023-12-22T12:35:40;99170.22;;;8.93
72278;BMP280;61204;49.980;8.358;2023-12-22T12:38:09;99180.41;;;9.05
72278;BMP280;61204;49.980;8.358;2023-12-22T12:40:39;99198.44;;;9.10
72278;BMP280;61204;49.980;8.358;2023-12-22T12:43:05;99196.66;;;9.14
72278;BMP280;61204;49.980;8.358;2023-12-22T12:45:31;99181.44;;;9.11
72278;BMP280;61204;49.980;8.358;2023-12-22T12:47:58;99171.81;;;9.10
72278;BMP280;61204;49.980;8.358;2023-12-22T12:50:27;99174.28;;;9.18
72278;BMP280;61204;49.980;8.358;2023-12-22T12:52:54;99176.03;;;9.25
72278;BMP280;61204;49.980;8.358;2023-12-22T12:55:22;99178.38;;;9.31
72278;BMP280;61204;49.980;8.358;2023-12-22T12:57:53;99156.03;;;9.34
72278;BMP280;61204;49.980;8.358;2023-12-22T13:00:28;99164.69;;;9.42
72278;BMP280;61204;49.980;8.358;2023-12-22T13:03:03;99173.31;;;9.50
72278;BMP280;61204;49.980;8.358;2023-12-22T13:05:31;99166.72;;;9.56
72278;BMP280;61204;49.980;8.358;2023-12-22T13:08:11;99176.28;;;9.68
72278;BMP280;61204;49.980;8.358;2023-12-22T13:10:39;99167.28;;;9.79
72278;BMP280;61204;49.980;8.358;2023-12-22T13:13:06;99150.50;;;9.99
72278;BMP280;61204;49.980;8.358;2023-12-22T13:15:32;99171.19;;;10.16
72278;BMP280;61204;49.980;8.358;2023-12-22T13:18:01;99177.06;;;10.24
72278;BMP280;61204;49.980;8.358;2023-12-22T13:20:27;99184.69;;;10.39
72278;BMP280;61204;49.980;8.358;2023-12-22T13:22:53;99172.88;;;10.50
72278;BMP280;61204;49.980;8.358;2023-12-22T13:25:19;99171.16;;;10.57
72278;BMP280;61204;49.980;8.358;2023-12-22T13:27:50;99173.47;;;10.62
72278;BMP280;61204;49.980;8.358;2023-12-22T13:30:37;99186.03;;;10.81
72278;BMP280;61204;49.980;8.358;2023-12-22T13:33:07;99179.84;;;10.81
72278;BMP280;61204;49.980;8.358;2023-12-22T13:35:34;99189.28;;;10.78
72278;BMP280;61204;49.980;8.358;2023-12-22T13:38:07;99194.06;;;10.77
72278;BMP280;61204;49.980;8.358;2023-12-22T13:40:34;99196.09;;;10.77
72278;BMP280;61204;49.980;8.358;2023-12-22T13:43:01;99177.53;;;10.75
72278;BMP280;61204;49.980;8.358;2023-12-22T13:45:28;99197.31;;;10.74
72278;BMP280;61204;49.980;8.358;2023-12-22T13:47:56;99204.13;;;10.73
72278;BMP280;61204;49.980;8.358;2023-12-22T13:50:22;99201.06;;;10.67
72278;BMP280;61204;49.980;8.358;2023-12-22T13:52:49;99204.53;;;10.67
72278;BMP280;61204;49.980;8.358;2023-12-22T13:55:20;99217.63;;;10.69
72278;BMP280;61204;49.980;8.358;2023-12-22T13:57:58;99209.63;;;10.73
72278;BMP280;61204;49.980;8.358;2023-12-22T14:00:29;99219.34;;;10.76
72278;BMP280;61204;49.980;8.358;2023-12-22T14:02:57;99202.19;;;10.75
72278;BMP280;61204;49.980;8.358;2023-12-22T14:05:23;99201.88;;;10.83
72278;BMP280;61204;49.980;8.358;2023-12-22T14:07:49;99209.41;;;10.82
72278;BMP280;61204;49.980;8.358;2023-12-22T14:10:15;99219.13;;;10.85
72278;BMP280;61204;49.980;8.358;2023-12-22T14:12:41;99217.13;;;10.86
72278;BMP280;61204;49.980;8.358;2023-12-22T14:15:08;99202.88;;;10.89
72278;BMP280;61204;49.980;8.358;2023-12-22T14:17:34;99193.31;;;10.90
72278;BMP280;61204;49.980;8.358;2023-12-22T14:20:00;99206.53;;;10.94
72278;BMP280;61204;49.980;8.358;2023-12-22T14:22:35;99214.38;;;10.86
72278;BMP280;61204;49.980;8.358;2023-12-22T14:25:06;99184.09;;;10.84
72278;BMP280;61204;49.980;8.358;2023-12-22T14:27:41;99206.03;;;10.84
72278;BMP280;61204;49.980;8.358;2023-12-22T14:30:06;99193.84;;;10.87
72278;BMP280;61204;49.980;8.358;2023-12-22T14:32:32;99209.59;;;10.86
72278;BMP280;61204;49.980;8.358;2023-12-22T14:35:00;99200.75;;;10.88
72278;BMP280;61204;49.980;8.358;2023-12-22T14:37:26;99198.00;;;10.88
72278;BMP280;61204;49.980;8.358;2023-12-22T14:39:51;99207.44;;;10.85